Time;durP1;ratioP1;P1;durP2;ratioP2;P2;SDS_P1;SDS_P2;PMS_P1;PMS_P2;Temp;Humidity;BMP_temperature;BMP_pressure;BME280_temperature;BME280_humidity;BME280_pressure;Samples;Min_cycle;Max_cycle;Signal;HPM_P1;HPM_P2
2022/04/15 00:00:05;;;;;;;10.38;6.25;;;;;;;;;;6204345;23;20016;-83
2022/04/15 00:02:32;;;;;;;15.68;6.40;;;;;;;;;;6204509;23;20027;-89
2022/04/15 00:04:58;;;;;;;7.53;6.22;;;;;;;;;;6206423;23;20065;-91
2022/04/15 00:07:25;;;;;;;12.05;6.55;;;;;;;;;;6206086;23;20017;-88
2022/04/15 00:09:51;;;;;;;7.43;5.82;;;;;;;;;;6203839;23;20095;-84
2022/04/15 00:12:28;;;;;;;10.40;6.38;;;;;;;;;;6200831;23;20099;-90
2022/04/15 00:14:57;;;;;;;11.57;6.63;;;;;;;;;;6199301;23;20574;-91
2022/04/15 00:17:23;;;;;;;8.77;6.63;;;;;;;;;;6198761;23;20020;-88
2022/04/15 00:19:49;;;;;;;11.75;7.05;;;;;;;;;;6201324;23;20000;-92
2022/04/15 00:22:15;;;;;;;8.05;6.18;;;;;;;;;;6200913;23;20020;-94
2022/04/15 00:24:45;;;;;;;9.88;7.18;;;;;;;;;;6205843;23;20020;-90
2022/04/15 00:27:11;;;;;;;10.80;6.55;;;;;;;;;;6201666;23;20020;-94
2022/04/15 00:29:37;;;;;;;7.07;5.40;;;;;;;;;;6200906;23;20012;-93
2022/04/15 00:32:03;;;;;;;9.48;6.82;;;;;;;;;;6201537;23;20071;-94
2022/04/15 00:34:31;;;;;;;15.93;7.72;;;;;;;;;;6201188;23;20048;-94
2022/04/15 00:36:57;;;;;;;9.65;6.22;;;;;;;;;;6203164;23;20020;-92
2022/04/15 00:39:24;;;;;;;13.45;7.30;;;;;;;;;;6205629;23;20040;-94
2022/04/15 00:41:50;;;;;;;7.97;6.25;;;;;;;;;;6206238;23;20020;-92
2022/04/15 00:44:16;;;;;;;9.32;6.40;;;;;;;;;;6207961;23;20047;-92
2022/04/15 00:46:42;;;;;;;9.60;5.95;;;;;;;;;;6205070;23;20027;-93
2022/04/15 00:49:10;;;;;;;9.43;6.30;;;;;;;;;;6205697;23;20012;-86
2022/04/15 00:51:36;;;;;;;12.07;6.47;;;;;;;;;;6229364;23;20023;-95
2022/04/15 00:54:03;;;;;;;10.38;6.47;;;;;;;;;;6205735;23;20068;-95
2022/04/15 00:56:32;;;;;;;13.55;7.75;;;;;;;;;;6209994;23;20044;-90
2022/04/15 00:59:00;;;;;;;11.82;7.93;;;;;;;;;;6209681;23;20016;-94
2022/04/15 01:01:27;;;;;;;12.63;7.60;;;;;;;;;;6209299;23;20020;-86
2022/04/15 01:03:54;;;;;;;12.68;6.93;;;;;;;;;;6208234;23;20024;-91
2022/04/15 01:06:22;;;;;;;12.38;6.50;;;;;;;;;;6209537;23;20453;-95
2022/04/15 01:08:50;;;;;;;13.35;7.85;;;;;;;;;;6210015;23;20017;-89
2022/04/15 01:11:18;;;;;;;13.07;6.70;;;;;;;;;;6210663;23;20016;-90
2022/04/15 01:13:46;;;;;;;17.15;7.18;;;;;;;;;;6210701;23;20017;-93
2022/04/15 01:16:12;;;;;;;16.63;7.63;;;;;;;;;;6208996;23;20136;-87
2022/04/15 01:18:39;;;;;;;8.68;6.45;;;;;;;;;;6209265;23;20032;-89
2022/04/15 01:21:08;;;;;;;11.68;6.28;;;;;;;;;;6208099;23;20027;-90
2022/04/15 01:23:34;;;;;;;9.80;5.07;;;;;;;;;;6210468;23;20016;-91
2022/04/15 01:26:00;;;;;;;13.70;5.70;;;;;;;;;;6210221;23;20052;-90
2022/04/15 01:28:27;;;;;;;14.50;5.03;;;;;;;;;;6211157;23;20071;-85
2022/04/15 01:30:53;;;;;;;11.98;4.88;;;;;;;;;;6211102;23;20043;-83
2022/04/15 01:33:20;;;;;;;10.63;5.07;;;;;;;;;;6184887;23;20524;-88
2022/04/15 01:35:46;;;;;;;13.02;4.10;;;;;;;;;;6208627;23;20001;-88
2022/04/15 01:38:14;;;;;;;7.13;4.28;;;;;;;;;;6206904;23;20025;-89
2022/04/15 01:40:40;;;;;;;7.38;4.85;;;;;;;;;;6208283;23;20044;-89
2022/04/15 01:43:06;;;;;;;6.05;4.20;;;;;;;;;;6181104;23;20062;-92
2022/04/15 01:45:33;;;;;;;7.95;4.88;;;;;;;;;;6204735;23;20012;-87
2022/04/15 01:47:59;;;;;;;11.77;4.35;;;;;;;;;;6206248;23;20027;-90
2022/04/15 01:50:28;;;;;;;10.60;4.75;;;;;;;;;;6206395;23;20012;-87
2022/04/15 01:52:54;;;;;;;12.18;4.55;;;;;;;;;;6205276;23;20021;-91
2022/04/15 01:55:20;;;;;;;9.80;5.18;;;;;;;;;;6205040;23;20086;-82
2022/04/15 01:57:46;;;;;;;8.48;4.75;;;;;;;;;;6228875;23;20021;-92
2022/04/15 02:00:13;;;;;;;9.10;4.93;;;;;;;;;;6203759;23;20000;-92
2022/04/15 02:02:39;;;;;;;11.57;5.60;;;;;;;;;;6204727;23;20020;-91
2022/04/15 02:05:05;;;;;;;13.93;5.55;;;;;;;;;;6204550;23;20016;-85
2022/04/15 02:07:31;;;;;;;14.35;5.90;;;;;;;;;;6203034;23;20050;-89
2022/04/15 02:09:57;;;;;;;9.60;6.65;;;;;;;;;;6201408;23;20021;-91
2022/04/15 02:12:23;;;;;;;13.15;6.80;;;;;;;;;;6188935;23;20023;-92
2022/04/15 02:14:53;;;;;;;16.33;7.00;;;;;;;;;;6204184;23;20031;-89
2022/04/15 02:17:19;;;;;;;16.00;7.85;;;;;;;;;;6153986;23;20043;-85
2022/04/15 02:19:45;;;;;;;18.30;6.80;;;;;;;;;;6176921;23;20083;-82
2022/04/15 02:22:11;;;;;;;9.65;6.97;;;;;;;;;;6175395;23;20540;-82
2022/04/15 02:24:37;;;;;;;20.40;8.00;;;;;;;;;;6175074;23;20048;-91
2022/04/15 02:27:06;;;;;;;19.92;7.72;;;;;;;;;;6201260;23;20017;-91
2022/04/15 02:29:33;;;;;;;10.32;7.45;;;;;;;;;;6152185;23;20020;-89
2022/04/15 02:31:59;;;;;;;16.33;8.50;;;;;;;;;;6145375;23;20464;-89
2022/04/15 02:34:27;;;;;;;14.60;7.63;;;;;;;;;;6196763;23;20023;-90
2022/04/15 02:36:55;;;;;;;10.98;6.75;;;;;;;;;;6147516;23;20316;-90
2022/04/15 02:39:24;;;;;;;15.57;8.30;;;;;;;;;;6170539;23;20096;-90
2022/04/15 02:41:52;;;;;;;18.92;7.15;;;;;;;;;;6144579;23;20087;-93
2022/04/15 02:44:21;;;;;;;16.38;7.50;;;;;;;;;;6146780;23;20017;-93
2022/04/15 02:46:52;;;;;;;14.63;8.30;;;;;;;;;;6137187;23;20076;-92
2022/04/15 02:49:21;;;;;;;12.25;8.10;;;;;;;;;;6136702;23;20047;-91
2022/04/15 02:51:47;;;;;;;12.13;8.32;;;;;;;;;;6140499;23;20021;-92
2022/04/15 02:54:14;;;;;;;15.98;9.30;;;;;;;;;;6139214;23;20024;-91
2022/04/15 02:56:43;;;;;;;25.63;11.25;;;;;;;;;;6138819;23;20103;-90
2022/04/15 02:59:16;;;;;;;19.88;11.52;;;;;;;;;;6140103;23;20020;-92
2022/04/15 03:01:51;;;;;;;22.27;13.43;;;;;;;;;;6143907;23;20028;-90
2022/04/15 03:04:17;;;;;;;20.50;12.93;;;;;;;;;;6169373;23;20454;-93
2022/04/15 03:06:46;;;;;;;23.27;14.00;;;;;;;;;;6140592;23;20021;-91
2022/04/15 03:09:12;;;;;;;23.63;14.43;;;;;;;;;;6138510;23;20017;-96
2022/04/15 03:11:44;;;;;;;21.73;14.60;;;;;;;;;;6187828;23;20025;-91
2022/04/15 03:14:11;;;;;;;20.95;13.57;;;;;;;;;;6186503;23;20099;-92
2022/04/15 03:16:37;;;;;;;19.58;12.05;;;;;;;;;;6159788;23;20027;-90
2022/04/15 03:19:06;;;;;;;14.27;11.32;;;;;;;;;;6161502;23;20017;-89
2022/04/15 03:21:35;;;;;;;14.18;10.65;;;;;;;;;;6161261;23;20024;-90
2022/04/15 03:24:01;;;;;;;11.10;8.30;;;;;;;;;;6149963;23;20017;-94
2022/04/15 03:26:28;;;;;;;11.35;7.97;;;;;;;;;;6173251;23;20045;-91
2022/04/15 03:28:54;;;;;;;7.70;6.63;;;;;;;;;;6149339;23;20017;-95
2022/04/15 03:31:20;;;;;;;9.85;6.70;;;;;;;;;;6170339;23;20024;-83
2022/04/15 03:33:49;;;;;;;10.25;6.68;;;;;;;;;;6165069;23;20024;-87
2022/04/15 03:36:15;;;;;;;9.18;6.40;;;;;;;;;;6138492;23;20017;-84
2022/04/15 03:38:42;;;;;;;8.60;6.03;;;;;;;;;;6164636;23;20403;-81
2022/04/15 03:41:08;;;;;;;9.27;6.18;;;;;;;;;;6165920;23;20071;-83
2022/04/15 03:43:34;;;;;;;7.45;6.10;;;;;;;;;;6141705;23;20454;-81
2022/04/15 03:46:00;;;;;;;8.35;6.93;;;;;;;;;;6141240;23;20017;-80
2022/04/15 03:48:27;;;;;;;9.95;6.05;;;;;;;;;;6165460;23;20071;-81
2022/04/15 03:50:53;;;;;;;10.13;6.32;;;;;;;;;;6166154;23;20032;-80
2022/04/15 03:53:20;;;;;;;8.00;5.50;;;;;;;;;;6140669;23;20021;-89
2022/04/15 03:55:46;;;;;;;6.60;5.90;;;;;;;;;;6166208;23;20009;-84
2022/04/15 03:58:15;;;;;;;6.38;5.60;;;;;;;;;;6141737;23;20056;-88
2022/04/15 04:00:42;;;;;;;7.57;5.28;;;;;;;;;;6165702;23;20091;-81
2022/04/15 04:03:08;;;;;;;6.10;5.47;;;;;;;;;;6165606;23;20528;-84
2022/04/15 04:05:34;;;;;;;7.80;5.47;;;;;;;;;;6140474;23;20096;-81
2022/04/15 04:08:03;;;;;;;7.03;4.97;;;;;;;;;;6166855;23;20051;-85
2022/04/15 04:10:30;;;;;;;9.55;5.05;;;;;;;;;;6163957;23;20072;-80
2022/04/15 04:12:57;;;;;;;5.40;4.80;;;;;;;;;;6138865;23;20390;-80
2022/04/15 04:15:23;;;;;;;8.45;5.60;;;;;;;;;;6140355;23;20443;-82
2022/04/15 04:17:49;;;;;;;8.70;4.78;;;;;;;;;;6140973;23;20099;-82
2022/04/15 04:20:18;;;;;;;11.60;5.35;;;;;;;;;;6165286;23;20013;-85
2022/04/15 04:22:44;;;;;;;7.80;4.65;;;;;;;;;;6165728;23;20052;-82
2022/04/15 04:25:11;;;;;;;6.00;4.82;;;7.60;99.90;;;;;;6141239;23;20017;-81
2022/04/15 04:27:38;;;;;;;6.90;4.63;;;7.90;99.90;;;;;;6142001;23;20116;-84
2022/04/15 04:30:05;;;;;;;6.13;4.75;;;7.90;99.90;;;;;;6141958;23;20461;-80
2022/04/15 04:32:31;;;;;;;5.25;4.75;;;;;;;;;;6140760;23;20478;-85
2022/04/15 04:34:57;;;;;;;6.72;4.45;;;;;;;;;;6141263;23;20477;-82
2022/04/15 04:37:24;;;;;;;5.70;4.80;;;;;;;;;;6167565;23;20023;-86
2022/04/15 04:39:50;;;;;;;6.65;5.03;;;;;;;;;;6142611;23;20016;-84
2022/04/15 04:42:18;;;;;;;5.55;4.45;;;;;;;;;;6142466;23;20100;-80
2022/04/15 04:44:45;;;;;;;5.15;3.90;;;;;;;;;;6141848;23;20045;-82
2022/04/15 04:47:12;;;;;;;5.68;4.28;;;;;;;;;;6142702;23;20021;-81
2022/04/15 04:49:41;;;;;;;4.85;4.25;;;;;;;;;;6167441;23;20009;-87
2022/04/15 04:52:08;;;;;;;3.85;3.50;;;;;;;;;;6165740;23;20099;-83
2022/04/15 04:54:34;;;;;;;3.20;2.90;;;;;;;;;;6117478;23;20152;-81
2022/04/15 04:57:01;;;;;;;5.55;3.45;;;;;;;;;;6139910;23;20400;-80
2022/04/15 04:59:29;;;;;;;3.05;2.70;;;;;;;;;;6140017;23;20013;-80
2022/04/15 05:01:56;;;;;;;3.30;2.80;;;;;;;;;;6166455;23;20028;-82
2022/04/15 05:04:22;;;;;;;4.38;3.30;;;;;;;;;;6173841;23;20081;-87
2022/04/15 05:06:48;;;;;;;4.10;2.97;;;;;;;;;;6176877;23;20455;-84
2022/04/15 05:09:15;;;;;;;3.20;2.80;;;;;;;;;;6140577;23;20017;-83
2022/04/15 05:11:41;;;;;;;3.58;3.08;;;;;;;;;;6140571;23;20075;-81
2022/04/15 05:14:07;;;;;;;6.53;4.03;;;;;;;;;;6164568;23;20057;-81
2022/04/15 05:16:33;;;;;;;5.85;3.75;;;;;;;;;;6140344;23;20036;-81
2022/04/15 05:19:00;;;;;;;13.98;3.50;;;;;;;;;;6163918;23;20450;-80
2022/04/15 05:21:27;;;;;;;4.55;3.60;;;;;;;;;;6141736;23;20025;-82
2022/04/15 05:23:56;;;;;;;4.70;3.40;;;;;;;;;;6141264;23;20729;-82
2022/04/15 05:26:22;;;;;;;6.45;3.80;;;;;;;;;;6141720;23;20021;-82
2022/04/15 05:28:48;;;;;;;5.05;3.58;;;;;;;;;;6141497;23;20024;-87
2022/04/15 05:31:14;;;;;;;6.07;3.53;;;;;;;;;;6140677;23;20100;-82
2022/04/15 05:33:40;;;;;;;6.03;4.07;;;;;;;;;;6152233;23;20043;-92
2022/04/15 05:36:12;;;;;;;6.93;4.32;;;;;;;;;;6153579;23;20031;-92
2022/04/15 05:39:05;;;;;;;5.22;4.38;;;;;;;;;;6177789;23;20024;-93
2022/04/15 05:47:57;;;;;;;5.40;3.97;;;;;;;;;;6205344;23;20052;-92
2022/04/15 05:50:36;;;;;;;10.80;5.22;;;;;;;;;;6206077;23;20044;-96
2022/04/15 05:53:11;;;;;;;11.10;4.68;;;;;;;;;;6177815;23;20017;-94
2022/04/15 05:55:46;;;;;;;5.75;4.50;;;;;;;;;;6151825;23;20021;-93
2022/04/15 05:58:16;;;;;;;6.47;5.75;;;;;;;;;;6174300;23;20025;-91
2022/04/15 06:00:52;;;;;;;5.70;5.18;;;;;;;;;;6133071;23;20028;-90
2022/04/15 06:03:35;;;;;;;8.85;5.72;;;;;;;;;;6114537;23;20018;-91
2022/04/15 06:09:52;;;;;;;6.70;5.07;;;;;;;;;;5996472;23;20063;-93
2022/04/15 06:15:35;;;;;;;8.43;6.70;;;;;;;;;;5936449;24;20076;-94
2022/04/15 06:21:05;;;;;;;7.53;6.10;;;;;;;;;;6187854;23;20081;-93
2022/04/15 06:23:34;;;;;;;8.57;7.03;;;;;;;;;;6141170;23;20025;-93
2022/04/15 06:26:09;;;;;;;10.82;7.00;;;;;;;;;;6163202;23;20088;-93
2022/04/15 06:28:38;;;;;;;14.68;7.65;;;;;;;;;;6139280;23;20017;-92
2022/04/15 06:31:04;;;;;;;9.38;7.22;;;;;;;;;;6164162;23;20024;-93
2022/04/15 06:33:33;;;;;;;8.55;7.07;;;;;;;;;;6140730;23;20017;-93
2022/04/15 06:36:02;;;;;;;8.55;7.55;;;;;;;;;;6142140;23;20434;-90
2022/04/15 06:38:32;;;;;;;15.40;9.27;;;;;;;;;;6165786;23;20013;-91
2022/04/15 06:41:04;;;;;;;9.88;7.25;;;;;;;;;;6141794;23;20028;-93
2022/04/15 06:46:48;;;;;;;10.27;7.78;;;;;;;;;;6167152;23;20032;-92
2022/04/15 06:49:17;;;;;;;13.63;8.95;;;;;;;;;;6142448;23;20013;-91
2022/04/15 06:52:07;;;;;;;18.80;10.63;;;;;;;;;;6142948;23;20017;-90
2022/04/15 06:54:47;;;;;;;;;;;;;;;;;;;;;
2022/04/15 06:57:20;;;;;;;16.92;10.18;;;;;;;;;;6167404;23;20016;-93
2022/04/15 06:59:54;;;;;;;15.80;9.82;;;;;;;;;;6144633;23;20017;-94
2022/04/15 07:02:20;;;;;;;20.50;9.57;;;;;;;;;;6166431;23;20020;-91
2022/04/15 07:04:46;;;;;;;16.08;9.65;;;;;;;;;;6166677;23;20017;-92
2022/04/15 07:07:12;;;;;;;15.00;9.38;;;;;;;;;;6141279;23;20067;-91
2022/04/15 07:09:38;;;;;;;14.70;9.05;;;;;;;;;;6137303;23;20020;-91
2022/04/15 07:12:05;;;;;;;15.85;9.35;;;;;;;;;;6137457;23;20017;-89
2022/04/15 07:14:42;;;;;;;18.25;10.30;;;;;;;;;;6136298;23;20013;-92
2022/04/15 07:17:08;;;;;;;19.23;9.73;;;;;;;;;;6137607;23;20362;-92
2022/04/15 07:19:38;;;;;;;17.13;9.25;;;;;;;;;;6139546;23;20482;-94
2022/04/15 07:22:08;;;;;;;17.45;8.73;;;;;;;;;;6139581;23;20021;-90
2022/04/15 07:24:34;;;;;;;19.17;10.38;;;;;;;;;;6165516;23;20017;-90
2022/04/15 07:27:00;;;;;;;15.13;9.60;;;;;;;;;;6169078;23;20024;-90
2022/04/15 07:29:27;;;;;;;23.77;9.45;;;;;;;;;;6143698;23;20065;-91
2022/04/15 07:31:53;;;;;;;17.63;9.30;;;;;;;;;;6145173;23;20023;-93
2022/04/15 07:34:19;;;;;;;10.85;7.60;;;;;;;;;;6195526;23;20333;-93
2022/04/15 07:36:53;;;;;;;14.63;7.57;;;;;;;;;;6199838;23;20021;-89
2022/04/15 07:39:20;;;;;;;;;;;8.70;99.90;;;;;;6199496;23;20040;-94
2022/04/15 07:41:47;;;;;;;12.63;6.93;;;;;;;;;;6197358;23;19916;-91
2022/04/15 07:44:14;;;;;;;13.45;7.03;;;;;;;;;;6144689;23;20027;-96
2022/04/15 07:46:41;;;;;;;16.98;8.00;;;;;;;;;;6172493;23;20371;-94
2022/04/15 07:49:08;;;;;;;10.45;6.50;;;;;;;;;;6168969;23;20020;-90
2022/04/15 07:51:35;;;;;;;8.50;6.30;;;;;;;;;;6174059;23;20048;-91
2022/04/15 07:54:01;;;;;;;13.02;6.97;;;;;;;;;;6145736;23;20100;-96
2022/04/15 07:56:27;;;;;;;11.93;6.28;;;;;;;;;;6141008;23;20013;-96
2022/04/15 07:58:53;;;;;;;10.63;6.03;;;;;;;;;;6142020;23;20025;-90
2022/04/15 08:01:20;;;;;;;17.98;5.82;;;;;;;;;;6165993;23;20327;-93
2022/04/15 08:03:46;;;;;;;12.00;6.30;;;;;;;;;;6164814;23;20076;-91
2022/04/15 08:06:13;;;;;;;10.00;6.75;;;;;;;;;;6146618;23;20032;-89
2022/04/15 08:08:39;;;;;;;8.50;5.60;;;;;;;;;;6169051;23;20053;-96
2022/04/15 08:11:06;;;;;;;10.90;6.00;;;;;;;;;;6170914;23;20335;-87
2022/04/15 08:13:32;;;;;;;6.97;4.78;;;;;;;;;;6172231;23;20017;-85
2022/04/15 08:15:58;;;;;;;6.97;5.07;;;;;;;;;;6146974;23;20397;-88
2022/04/15 08:18:25;;;;;;;5.85;4.82;;;;;;;;;;6148373;23;20016;-87
2022/04/15 08:20:55;;;;;;;9.80;6.18;;;;;;;;;;6143026;23;20120;-87
2022/04/15 08:23:22;;;;;;;8.75;5.60;;;;;;;;;;6167070;23;20021;-87
2022/04/15 08:25:48;;;;;;;7.32;5.53;;;;;;;;;;6176098;23;20104;-81
2022/04/15 08:28:15;;;;;;;9.82;5.10;;;;;;;;;;6146967;23;20028;-86
2022/04/15 08:30:41;;;;;;;10.10;5.80;;;;;;;;;;6196883;23;20021;-83
2022/04/15 08:33:07;;;;;;;7.05;5.70;;;;;;;;;;6171468;23;20017;-81
2022/04/15 08:35:36;;;;;;;9.05;5.75;;;;;;;;;;6171627;23;20021;-94
2022/04/15 08:38:02;;;;;;;15.07;5.72;;;;;;;;;;6171962;23;20017;-82
2022/04/15 08:40:36;;;;;;;12.25;5.47;;;;;;;;;;6176337;23;20040;-82
2022/04/15 08:43:03;;;;;;;7.93;5.45;;;;;;;;;;6173530;23;20025;-84
2022/04/15 08:45:30;;;;;;;8.23;5.75;;;;;;;;;;6172099;23;20045;-94
2022/04/15 08:48:04;;;;;;;8.52;6.15;;;;;;;;;;6117117;23;20076;-91
2022/04/15 08:50:31;;;;;;;7.68;5.15;;;;;;;;;;6140397;23;20076;-90
2022/04/15 08:53:08;;;;;;;13.02;5.15;;;;;;;;;;6117077;23;20021;-91
2022/04/15 08:55:34;;;;;;;8.82;4.60;;;;;;;;;;6114793;23;20014;-96
2022/04/15 08:58:02;;;;;;;12.70;5.03;;;;;;;;;;6138617;23;20029;-90
2022/04/15 09:00:38;;;;;;;8.07;4.95;;;;;;;;;;6138774;23;20024;-92
2022/04/15 09:03:07;;;;;;;9.80;4.38;;;;;;;;;;6111829;23;20022;-93
2022/04/15 09:05:37;;;;;;;13.68;5.55;;;;;;;;;;6114748;23;20018;-95
2022/04/15 09:08:12;;;;;;;6.78;4.53;;;;;;;;;;6113659;23;20060;-94
2022/04/15 09:10:54;;;;;;;;;;;;;;;;;;;;;
2022/04/15 09:13:30;;;;;;;4.88;4.32;;;;;;;;;;6136901;23;20072;-94
2022/04/15 09:16:02;;;;;;;8.85;4.97;;;;;;;;;;6141162;23;20024;-96
2022/04/15 09:18:34;;;;;;;11.80;5.13;;;;;;;;;;6173844;23;20021;-92
2022/04/15 09:21:19;;;;;;;7.30;4.95;;;;;;;;;;6194249;23;20439;-93
2022/04/15 09:23:52;;;;;;;9.50;5.32;;;;;;;;;;6168035;23;20021;-95
2022/04/15 09:26:20;;;;;;;7.37;5.10;;;;;;;;;;6191939;23;20017;-89
2022/04/15 09:28:54;;;;;;;12.80;5.80;;;;;;;;;;6195240;23;20264;-92
2022/04/15 09:31:23;;;;;;;;;;;11.40;99.90;;;;;;6194671;23;20021;-93
2022/04/15 09:33:58;;;;;;;10.15;5.85;;;;;;;;;;6197418;23;20261;-92
2022/04/15 09:36:31;;;;;;;9.35;5.70;;;;;;;;;;6193982;23;20343;-91
2022/04/15 09:38:59;;;;;;;8.23;6.20;;;;;;;;;;6193966;23;20048;-89
2022/04/15 09:41:25;;;;;;;10.27;6.65;;;;;;;;;;6193977;23;20047;-87
2022/04/15 09:43:55;;;;;;;9.38;5.55;;;;;;;;;;6194127;23;20155;-86
2022/04/15 09:46:21;;;;;;;9.77;5.90;;;;;;;;;;6194021;23;20016;-89
2022/04/15 09:49:17;;;;;;;12.55;7.15;;;;;;;;;;6195461;23;20393;-93
2022/04/15 09:51:47;;;;;;;9.48;6.38;;;;;;;;;;6081353;23;20097;-91
2022/04/15 09:54:23;;;;;;;11.18;6.85;;;;;;;;;;6083025;23;20026;-87
2022/04/15 09:56:50;;;;;;;9.35;6.70;;;;;;;;;;6060268;23;20037;-89
2022/04/15 09:59:17;;;;;;;8.70;6.43;;;;;;;;;;6061225;23;20018;-90
2022/04/15 10:01:45;;;;;;;11.05;7.25;;;;;;;;;;6057913;23;20395;-86
2022/04/15 10:04:12;;;;;;;7.07;5.60;;;;;;;;;;6082053;23;20046;-86
2022/04/15 10:06:38;;;;;;;11.30;6.70;;;;;;;;;;6058278;23;20026;-80
2022/04/15 10:09:06;;;;;;;8.77;6.07;;;;;;;;;;6083711;23;20023;-84
2022/04/15 10:11:35;;;;;;;6.68;5.63;;;;;;;;;;6084589;23;20070;-86
2022/04/15 10:14:01;;;;;;;7.35;5.57;;;;;;;;;;6081084;23;20023;-88
2022/04/15 10:16:27;;;;;;;8.77;5.95;;;;;;;;;;6082021;23;20061;-93
2022/04/15 10:18:54;;;;;;;8.90;5.22;;;;;;;;;;6059597;23;20022;-90
2022/04/15 10:21:20;;;;;;;9.70;5.50;;;;;;;;;;6083824;23;20024;-92
2022/04/15 10:23:46;;;;;;;9.65;6.75;;;;;;;;;;6059388;23;20018;-88
2022/04/15 10:26:12;;;;;;;9.57;5.63;;;;;;;;;;6058646;23;20065;-84
2022/04/15 10:28:44;;;;;;;9.75;4.75;;;;;;;;;;6141090;23;20067;-86
2022/04/15 10:31:11;;;;;;;7.03;5.35;;;;;;;;;;6177073;23;20017;-88
2022/04/15 10:33:40;;;;;;;9.07;6.28;;;;;;;;;;6151073;23;20063;-91
2022/04/15 10:38:33;;;;;;;6.85;5.47;;;;;;;;;;6106707;23;20101;-94
2022/04/15 10:41:13;;;;;;;8.80;5.95;;;;;;;;;;6059585;23;20022;-90
2022/04/15 10:43:55;;;;;;;9.93;5.63;;;;;;;;;;6092000;23;20022;-94
2022/04/15 10:46:28;;;;;;;9.20;5.80;;;;;;;;;;6117439;23;20030;-84
2022/04/15 10:48:57;;;;;;;6.10;5.28;;;;;;;;;;6094599;23;20025;-89
2022/04/15 10:51:25;;;;;;;9.57;6.28;;;;;;;;;;6093146;23;20021;-85
2022/04/15 10:53:52;;;;;;;7.78;5.28;;;;;;;;;;6095860;23;20030;-84
2022/04/15 10:56:20;;;;;;;9.30;5.75;;;;;;;;;;6117736;23;20010;-91
2022/04/15 11:02:02;;;;;;;9.35;5.75;;;;;;;;;;6103990;23;20053;-88
2022/04/15 11:04:35;;;;;;;9.60;5.55;;;;;;;;;;6085248;23;20020;-92
2022/04/15 11:07:14;;;;;;;6.82;5.63;;;;;;;;;;6107433;23;20034;-90
2022/04/15 11:09:44;;;;;;;8.00;5.35;;;;;;;;;;6107194;23;20024;-89
2022/04/15 11:12:12;;;;;;;7.50;5.35;;;;;;;;;;6082276;23;20104;-90
2022/04/15 11:14:43;;;;;;;9.27;5.63;;;;;;;;;;6104437;23;20088;-90
2022/04/15 11:17:14;;;;;;;8.45;5.78;;;;;;;;;;6104620;23;20021;-93
2022/04/15 11:19:41;;;;;;;11.27;5.97;;;;;;;;;;6104481;23;20029;-92
2022/04/15 11:22:10;;;;;;;8.77;5.70;;;;;;;;;;6078788;23;20459;-92
2022/04/15 11:24:38;;;;;;;8.45;6.15;;;;;;;;;;6081401;23;20018;-91
2022/04/15 11:27:04;;;;;;;7.22;5.57;;;;;;;;;;6088301;23;20025;-88
2022/04/15 11:29:32;;;;;;;7.13;6.18;;;;;;;;;;6114220;23;20048;-88
2022/04/15 11:32:00;;;;;;;7.30;5.57;;;;;;;;;;6113487;23;20096;-92
2022/04/15 11:34:27;;;;;;;6.35;5.18;;;;;;;;;;6137748;23;20028;-88
2022/04/15 11:37:02;;;;;;;9.80;6.50;;;;;;;;;;6114317;23;20025;-91
2022/04/15 11:39:29;;;;;;;9.73;5.68;;;;;;;;;;6114378;23;20022;-90
2022/04/15 11:41:59;;;;;;;15.80;6.70;;;;;;;;;;6141181;23;20069;-92
2022/04/15 11:44:30;;;;;;;14.45;7.65;;;;;;;;;;6117343;23;20017;-91
2022/04/15 11:47:15;;;;;;;10.85;7.03;;;;;;;;;;6141703;23;20021;-91
2022/04/15 11:49:44;;;;;;;12.10;7.10;;;;;;;;;;6135400;23;20041;-90
2022/04/15 11:52:11;;;;;;;10.00;6.90;;;;;;;;;;6145037;23;20446;-83
2022/04/15 11:54:40;;;;;;;10.57;6.97;;;;;;;;;;6119033;23;20037;-84
2022/04/15 11:57:07;;;;;;;14.05;6.75;;;;;;;;;;6117169;23;20028;-81
2022/04/15 11:59:46;;;;;;;10.65;7.25;;;;;;;;;;6115406;23;20013;-86
2022/04/15 12:02:14;;;;;;;12.10;6.75;;;;;;;;;;6114364;23;20485;-81
2022/04/15 12:04:52;;;;;;;9.35;6.82;;;;;;;;;;6138491;23;20455;-82
2022/04/15 12:07:20;;;;;;;12.02;7.13;;;;;;;;;;6114385;23;20121;-81
2022/04/15 12:09:47;;;;;;;10.52;7.45;;;;;;;;;;6111396;23;20100;-80
2022/04/15 12:12:14;;;;;;;10.68;6.78;;;;;;;;;;6134646;23;20044;-81
2022/04/15 12:14:41;;;;;;;10.68;7.57;;;;;;;;;;6163257;23;20018;-81
2022/04/15 12:17:14;;;;;;;16.55;7.32;;;;;;;;;;6136122;23;20033;-82
2022/04/15 12:19:41;;;;;;;8.07;6.53;;;;;;;;;;6135572;23;20022;-81
2022/04/15 12:22:10;;;;;;;8.75;6.75;;;;;;;;;;6111853;23;20013;-81
2022/04/15 12:24:37;;;;;;;8.18;6.72;;;;;;;;;;6163117;23;20022;-81
2022/04/15 12:27:04;;;;;;;9.30;6.07;;;;;;;;;;6137073;23;20022;-88
2022/04/15 12:32:36;;;;;;;16.80;8.07;;;;;;;;;;6024959;23;20066;-82
2022/04/15 12:35:03;;;;;;;9.05;6.75;;;;;;;;;;6023220;23;20031;-84
2022/04/15 12:37:49;;;;;;;9.27;6.07;;;;;;;;;;6023471;23;20118;-85
2022/04/15 12:40:15;;;;;;;13.13;6.40;;;;;;;;;;6033791;23;20023;-93
2022/04/15 12:42:42;;;;;;;9.63;6.75;;;;;;;;;;6032996;23;20027;-96
2022/04/15 12:45:12;;;;;;;10.25;6.68;;;;;;;;;;6032864;23;20123;-93
2022/04/15 12:47:39;;;;;;;13.70;7.35;;;;;;;;;;6034866;23;20113;-95
2022/04/15 12:50:25;;;;;;;10.65;7.18;;;10.90;99.90;;;;;;6033819;23;20024;-90
2022/04/15 12:52:53;;;;;;;12.50;7.30;;;11.00;99.90;;;;;;6006622;23;20023;-91
2022/04/15 12:55:25;;;;;;;9.90;8.13;;;;;;;;;;6005598;23;20055;-90
2022/04/15 12:57:51;;;;;;;9.23;6.80;;;;;;;;;;6029558;23;20023;-90
2022/04/15 13:00:18;;;;;;;12.00;7.53;;;;;;;;;;6029049;23;20530;-89
2022/04/15 13:02:44;;;;;;;12.20;7.75;;;;;;;;;;6030657;23;20066;-82
2022/04/15 13:05:10;;;;;;;7.85;6.40;;;;;;;;;;6054050;23;20075;-95
2022/04/15 13:07:37;;;;;;;9.30;7.50;;;;;;;;;;6068450;23;20040;-91
2022/04/15 13:10:03;;;;;;;10.35;6.85;;;;;;;;;;6120741;23;20021;-95
2022/04/15 13:12:30;;;;;;;11.77;6.57;;;;;;;;;;6120408;23;20541;-95
2022/04/15 13:14:56;;;;;;;11.20;6.72;;;;;;;;;;6121416;23;20606;-90
2022/04/15 13:17:22;;;;;;;10.63;7.10;;;;;;;;;;6148059;23;20033;-84
2022/04/15 13:19:48;;;;;;;9.02;6.63;;;;;;;;;;6146530;23;20013;-82
2022/04/15 13:22:15;;;;;;;7.85;6.18;;;10.60;99.90;;;;;;6144518;23;20022;-80
2022/04/15 13:24:41;;;;;;;10.13;7.00;;;;;;;;;;6121317;23;20028;-89
2022/04/15 13:27:07;;;;;;;10.93;6.82;;;;;;;;;;6122574;23;20072;-95
2022/04/15 13:29:33;;;;;;;10.85;6.65;;;;;;;;;;6145773;23;20014;-96
2022/04/15 13:32:00;;;;;;;7.13;5.53;;;;;;;;;;6142669;23;20021;-88
2022/04/15 13:34:27;;;;;;;7.68;6.88;;;;;;;;;;6119819;23;20454;-81
2022/04/15 13:36:53;;;;;;;12.00;6.53;;;;;;;;;;6119370;23;20070;-81
2022/04/15 13:39:19;;;;;;;10.05;6.47;;;;;;;;;;6144019;23;20061;-84
2022/04/15 13:41:46;;;;;;;8.32;6.47;;;;;;;;;;6110563;23;20406;-84
2022/04/15 13:44:15;;;;;;;12.43;6.20;;;;;;;;;;6136782;23;20469;-83
2022/04/15 13:46:41;;;;;;;8.35;6.38;;;;;;;;;;6134284;23;20331;-84
2022/04/15 13:49:07;;;;;;;9.57;5.72;;;;;;;;;;6111291;23;20021;-81
2022/04/15 13:51:33;;;;;;;8.23;7.10;;;;;;;;;;6135810;23;20052;-81
2022/04/15 13:56:44;;;;;;;12.35;6.07;;;;;;;;;;6134182;23;20101;-82
2022/04/15 13:59:12;;;;;;;10.20;6.82;;;;;;;;;;6135445;23;20045;-81
2022/04/15 14:01:40;;;;;;;9.20;7.07;;;;;;;;;;6133803;23;20013;-88
2022/04/15 14:04:08;;;;;;;9.77;7.53;;;;;;;;;;6135512;23;20052;-87
2022/04/15 14:06:34;;;;;;;12.75;8.40;;;;;;;;;;6109483;23;20068;-84
2022/04/15 14:09:02;;;;;;;7.65;6.65;;;;;;;;;;6109566;23;20477;-91
2022/04/15 14:11:28;;;;;;;12.82;6.07;;;10.60;99.90;;;;;;6109552;23;20025;-81
2022/04/15 14:13:57;;;;;;;11.40;6.53;;;;;;;;;;6110717;23;20021;-81
2022/04/15 14:16:26;;;;;;;12.38;5.80;;;;;;;;;;6107626;23;20049;-81
2022/04/15 14:18:53;;;;;;;8.73;6.07;;;;;;;;;;6132800;23;20048;-83
2022/04/15 14:21:19;;;;;;;12.18;6.40;;;;;;;;;;6132914;23;20075;-84
2022/04/15 14:23:45;;;;;;;15.30;6.07;;;;;;;;;;6108707;23;20018;-86
2022/04/15 14:26:11;;;;;;;10.48;6.30;;;;;;;;;;6133758;23;20129;-84
2022/04/15 14:28:39;;;;;;;10.18;7.53;;;;;;;;;;6109866;23;20020;-82
2022/04/15 14:31:05;;;;;;;11.90;7.43;;;;;;;;;;6134502;23;20014;-81
2022/04/15 14:33:32;;;;;;;9.90;7.43;;;;;;;;;;6109267;23;20025;-85
2022/04/15 14:35:59;;;;;;;10.43;7.00;;;;;;;;;;6132111;23;20055;-82
2022/04/15 14:38:28;;;;;;;9.95;6.90;;;;;;;;;;6132825;23;20032;-80
2022/04/15 14:40:55;;;;;;;9.75;6.45;;;;;;;;;;6133280;23;20068;-81
2022/04/15 14:43:21;;;;;;;10.90;6.35;;;;;;;;;;6133032;23;20496;-81
2022/04/15 14:45:56;;;;;;;12.30;7.25;;;;;;;;;;6108415;23;20049;-84
2022/04/15 14:48:23;;;;;;;11.45;6.70;;;;;;;;;;6107823;23;20021;-84
2022/04/15 14:50:52;;;;;;;6.85;5.47;;;;;;;;;;6108360;23;20025;-89
2022/04/15 14:53:18;;;;;;;10.38;6.13;;;;;;;;;;6133770;23;20017;-83
2022/04/15 14:55:45;;;;;;;9.63;6.72;;;;;;;;;;6107378;23;20525;-82
2022/04/15 14:58:11;;;;;;;7.45;6.72;;;;;;;;;;6132745;23;20048;-81
2022/04/15 15:00:38;;;;;;;10.27;6.90;;;;;;;;;;6132813;23;20018;-81
2022/04/15 15:03:05;;;;;;;10.75;6.63;;;;;;;;;;6132337;23;20020;-86
2022/04/15 15:05:36;;;;;;;7.55;6.13;;;;;;;;;;6133494;23;20025;-88
2022/04/15 15:08:03;;;;;;;17.27;7.15;;;;;;;;;;6111452;23;20018;-92
2022/04/15 15:10:29;;;;;;;15.45;7.22;;;;;;;;;;6111116;23;20021;-90
2022/04/15 15:12:58;;;;;;;12.15;6.38;;;;;;;;;;6159551;23;20450;-82